createdAt,value
2019-04-11T00:01:44.722Z,81.90
2019-04-11T00:04:06.310Z,83.00
2019-04-11T00:06:33.819Z,81.60
2019-04-11T00:09:00.732Z,81.20
2019-04-11T00:11:28.167Z,80.10
2019-04-11T00:13:55.703Z,80.20
2019-04-11T00:16:23.464Z,80.00
2019-04-11T00:18:51.377Z,83.10
2019-04-11T00:21:18.153Z,81.20
2019-04-11T00:23:46.013Z,81.00
2019-04-11T00:26:13.823Z,79.40
2019-04-11T00:28:41.626Z,79.00
2019-04-11T00:31:08.585Z,79.10
2019-04-11T00:33:35.232Z,79.40
2019-04-11T00:36:02.029Z,79.40
2019-04-11T00:38:29.880Z,78.70
2019-04-11T00:40:57.574Z,78.00
2019-04-11T00:43:31.567Z,78.60
2019-04-11T00:45:53.978Z,79.30
2019-04-11T00:48:21.703Z,78.80
2019-04-11T00:50:49.563Z,79.20
2019-04-11T00:53:18.839Z,79.10
2019-04-11T00:55:45.937Z,79.10
2019-04-11T00:58:13.755Z,79.70
2019-04-11T01:00:40.732Z,81.30
2019-04-11T01:03:07.558Z,79.30
2019-04-11T01:05:34.256Z,79.40
2019-04-11T01:08:01.038Z,80.60
2019-04-11T01:10:27.901Z,80.50
2019-04-11T01:15:38.606Z,79.60
2019-04-11T01:18:05.650Z,80.70
2019-04-11T01:20:32.485Z,80.50
2019-04-11T01:22:59.438Z,81.00
2019-04-11T01:25:26.080Z,80.30
2019-04-11T01:27:52.777Z,80.70
2019-04-11T01:30:22.840Z,82.50
2019-04-11T01:32:50.464Z,81.60
2019-04-11T01:35:17.797Z,83.10
2019-04-11T01:37:46.049Z,83.50
2019-04-11T01:40:13.777Z,82.70
2019-04-11T01:42:41.657Z,82.10
2019-04-11T01:45:09.561Z,82.40
2019-04-11T01:47:39.278Z,81.90
2019-04-11T01:50:06.300Z,81.90
2019-04-11T01:52:34.083Z,83.00
2019-04-11T01:55:02.024Z,84.30
2019-04-11T01:57:29.731Z,83.90
2019-04-11T01:59:56.573Z,82.00
2019-04-11T02:02:30.892Z,82.40
2019-04-11T02:05:02.840Z,83.40
2019-04-11T02:07:30.914Z,84.60
2019-04-11T02:09:57.971Z,83.20
2019-04-11T02:12:24.674Z,82.80
2019-04-11T02:14:52.166Z,83.00
2019-04-11T02:17:18.957Z,81.90
2019-04-11T02:19:45.696Z,82.50
2019-04-11T02:22:30.711Z,81.60
2019-04-11T02:25:16.444Z,82.10
2019-04-11T02:27:44.262Z,82.20
2019-04-11T02:30:13.532Z,82.30
2019-04-11T02:32:40.509Z,82.10
2019-04-11T02:35:08.651Z,82.70
2019-04-11T02:37:35.521Z,82.60
2019-04-11T02:40:05.493Z,82.20
2019-04-11T02:42:34.927Z,82.90
2019-04-11T02:45:18.007Z,82.30
2019-04-11T02:47:33.304Z,84.50
2019-04-11T02:50:00.021Z,83.00
2019-04-11T02:52:27.771Z,83.10
2019-04-11T02:54:56.710Z,83.40
2019-04-11T02:57:23.574Z,83.00
2019-04-11T02:59:51.222Z,83.20
2019-04-11T03:02:19.473Z,84.10
2019-04-11T03:04:48.170Z,83.10
2019-04-11T03:07:16.391Z,82.50
2019-04-11T03:09:44.005Z,82.80
2019-04-11T03:12:13.281Z,82.80
2019-04-11T03:15:02.088Z,84.20
2019-04-11T03:17:16.948Z,84.60
2019-04-11T03:19:47.713Z,84.00
2019-04-11T03:22:05.769Z,84.00
2019-04-11T03:24:35.291Z,83.40
2019-04-11T03:27:04.589Z,83.00
2019-04-11T03:29:31.528Z,83.20
2019-04-11T03:39:44.292Z,83.40
2019-04-11T03:42:11.088Z,84.20
2019-04-11T03:44:28.987Z,84.70
2019-04-11T03:47:08.480Z,85.20
2019-04-11T03:49:29.423Z,85.40
2019-04-11T03:51:48.482Z,84.20
2019-04-11T03:54:15.692Z,83.70
2019-04-11T03:56:43.287Z,85.70
2019-04-11T03:59:14.191Z,84.50
2019-04-11T04:01:39.909Z,85.20
2019-04-11T04:04:08.921Z,85.60
2019-04-11T04:06:37.215Z,86.30
2019-04-11T04:09:06.618Z,85.30
2019-04-11T04:11:34.900Z,84.10
2019-04-11T04:14:08.016Z,84.90
2019-04-11T04:16:56.751Z,85.70
2019-04-11T04:19:30.704Z,84.80
2019-04-11T04:22:04.940Z,85.40
2019-04-11T04:24:37.888Z,86.00
2019-04-11T04:27:06.983Z,86.70
2019-04-11T04:29:32.261Z,85.80
2019-04-11T04:31:59.877Z,85.40
2019-04-11T04:34:28.194Z,85.60
2019-04-11T04:36:55.671Z,85.40
2019-04-11T04:39:24.403Z,86.00
2019-04-11T04:42:01.230Z,86.20
2019-04-11T04:44:22.409Z,85.80
2019-04-11T04:47:04.497Z,86.30
2019-04-11T04:49:18.639Z,85.50
2019-04-11T04:51:45.794Z,84.70
2019-04-11T04:54:14.233Z,85.10
2019-04-11T04:56:41.934Z,85.20
2019-04-11T04:59:11.788Z,86.50
2019-04-11T05:01:39.289Z,87.90
2019-04-11T05:04:06.863Z,90.00
2019-04-11T05:06:34.607Z,88.70
2019-04-11T05:09:01.421Z,88.30
2019-04-11T05:11:28.430Z,88.80
2019-04-11T05:13:56.445Z,90.20
2019-04-11T05:16:23.485Z,88.70
2019-04-11T05:18:50.524Z,87.50
2019-04-11T05:21:17.313Z,86.20
2019-04-11T05:23:44.000Z,85.80
2019-04-11T05:26:10.944Z,85.70
2019-04-11T05:28:37.720Z,85.10
2019-04-11T05:31:04.360Z,85.40
2019-04-11T05:33:31.456Z,85.50
2019-04-11T05:35:58.589Z,85.20
2019-04-11T05:38:25.496Z,86.00
2019-04-11T05:40:54.450Z,86.40
2019-04-11T05:43:24.605Z,85.30
2019-04-11T05:45:53.600Z,85.10
2019-04-11T05:48:23.488Z,84.10
2019-04-11T05:50:50.963Z,85.00
2019-04-11T05:53:18.926Z,84.40
2019-04-11T05:55:47.507Z,84.00
2019-04-11T05:58:15.963Z,83.00
2019-04-11T06:00:50.736Z,83.50
2019-04-11T06:03:17.743Z,84.00
2019-04-11T06:05:59.806Z,82.00
2019-04-11T06:08:28.574Z,82.70
2019-04-11T06:11:02.599Z,83.40
2019-04-11T06:13:30.092Z,84.90
2019-04-11T06:16:01.370Z,84.80
2019-04-11T06:18:44.759Z,84.10
2019-04-11T06:21:20.324Z,82.70
2019-04-11T06:23:49.905Z,83.70
2019-04-11T06:26:34.543Z,84.50
2019-04-11T06:29:17.394Z,84.00
2019-04-11T06:31:57.042Z,82.70
2019-04-11T06:34:27.001Z,82.60
2019-04-11T06:36:55.680Z,84.50
2019-04-11T06:39:33.519Z,84.00
2019-04-11T06:42:04.158Z,82.90
2019-04-11T06:44:48.496Z,82.80
2019-04-11T06:47:20.847Z,83.10
2019-04-11T06:50:02.768Z,82.80
2019-04-11T06:52:29.776Z,82.70
2019-04-11T06:55:08.698Z,82.60
2019-04-11T06:57:38.278Z,80.80
2019-04-11T07:00:09.225Z,81.70
2019-04-11T07:02:47.252Z,81.50
2019-04-11T07:05:16.123Z,78.90
2019-04-11T07:07:47.398Z,79.70
2019-04-11T07:10:15.863Z,79.60
2019-04-11T07:12:47.357Z,78.60
2019-04-11T07:15:23.070Z,78.40
2019-04-11T07:18:09.760Z,76.50
2019-04-11T07:20:44.178Z,75.70
2019-04-11T07:23:30.702Z,74.40
2019-04-11T07:26:00.308Z,72.50
2019-04-11T07:28:37.891Z,73.40
2019-04-11T07:31:15.603Z,72.30
2019-04-11T07:33:47.426Z,74.20
2019-04-11T07:36:32.413Z,73.00
2019-04-11T07:39:01.065Z,72.00
2019-04-11T07:41:39.192Z,70.70
2019-04-11T07:44:08.495Z,72.20
2019-04-11T07:46:51.912Z,69.10
2019-04-11T07:49:24.369Z,68.80
2019-04-11T07:51:53.150Z,67.40
2019-04-11T07:54:20.286Z,67.20
2019-04-11T07:56:55.095Z,67.40
2019-04-11T07:59:29.569Z,66.10
2019-04-11T08:02:04.036Z,67.30
2019-04-11T08:04:45.190Z,65.30
2019-04-11T08:07:30.500Z,65.60
2019-04-11T08:10:16.026Z,65.60
2019-04-11T08:12:43.617Z,64.50
2019-04-11T08:15:29.354Z,63.10
2019-04-11T08:17:58.093Z,63.90
2019-04-11T08:20:43.600Z,65.40
2019-04-11T08:23:11.648Z,64.90
2019-04-11T08:25:57.752Z,63.10
2019-04-11T08:28:24.826Z,64.40
2019-04-11T08:31:11.013Z,62.40
2019-04-11T08:33:38.427Z,62.80
2019-04-11T08:36:09.339Z,61.50
2019-04-11T08:38:36.416Z,62.10
2019-04-11T08:41:19.840Z,59.80
2019-04-11T08:43:47.664Z,61.40
2019-04-11T08:46:16.402Z,59.20
2019-04-11T08:48:45.651Z,59.10
2019-04-11T08:51:17.213Z,59.30
2019-04-11T08:53:45.842Z,58.40
2019-04-11T08:56:18.856Z,59.20
2019-04-11T08:59:17.286Z,58.60
2019-04-11T09:01:45.621Z,58.70
2019-04-11T09:04:32.346Z,59.00
2019-04-11T09:07:01.017Z,58.20
2019-04-11T09:09:36.264Z,56.50
2019-04-11T09:12:06.520Z,57.30
2019-04-11T09:14:50.581Z,57.10
2019-04-11T09:17:21.012Z,57.70
2019-04-11T09:19:56.915Z,56.00
2019-04-11T09:22:33.116Z,56.80
2019-04-11T09:25:10.919Z,56.20
2019-04-11T09:27:42.680Z,54.50
2019-04-11T09:30:13.334Z,54.20
2019-04-11T09:32:54.130Z,55.00
2019-04-11T09:35:39.501Z,55.50
2019-04-11T09:38:10.896Z,55.70
2019-04-11T09:40:42.347Z,55.20
2019-04-11T09:43:26.316Z,54.40
2019-04-11T09:45:54.974Z,54.70
2019-04-11T09:48:40.278Z,54.50
2019-04-11T09:51:24.065Z,54.60
2019-04-11T09:53:52.914Z,54.10
2019-04-11T09:56:39.588Z,54.00
2019-04-11T09:59:12.200Z,53.10
2019-04-11T10:01:49.712Z,51.80
2019-04-11T10:04:18.840Z,52.50
2019-04-11T10:07:03.832Z,52.40
2019-04-11T10:09:35.765Z,53.00
2019-04-11T10:12:22.076Z,52.70
2019-04-11T10:14:50.839Z,52.10
2019-04-11T10:17:24.297Z,52.70
2019-04-11T10:19:51.990Z,52.40
2019-04-11T10:22:30.137Z,52.40
2019-04-11T10:25:01.505Z,53.00
2019-04-11T10:27:33.073Z,52.60
2019-04-11T10:30:19.396Z,53.90
2019-04-11T10:32:48.123Z,53.40
2019-04-11T10:35:32.492Z,53.20
2019-04-11T10:38:00.451Z,53.40
2019-04-11T10:40:45.768Z,53.10
2019-04-11T10:43:12.615Z,53.60
2019-04-11T10:45:58.797Z,53.30
2019-04-11T10:48:34.514Z,53.30
2019-04-11T10:51:08.828Z,52.80
2019-04-11T10:53:35.862Z,53.40
2019-04-11T10:56:08.422Z,52.50
2019-04-11T10:58:37.255Z,51.30
2019-04-11T11:01:05.886Z,52.30
2019-04-11T11:03:34.496Z,52.70
2019-04-11T11:06:07.615Z,52.70
2019-04-11T11:08:36.196Z,52.90
2019-04-11T11:11:06.075Z,53.40
2019-04-11T11:13:40.744Z,54.30
2019-04-11T11:16:08.925Z,53.30
2019-04-11T11:19:24.622Z,52.00
2019-04-11T11:21:29.415Z,52.60
2019-04-11T11:24:11.813Z,53.00
2019-04-11T11:26:39.083Z,53.90
2019-04-11T11:29:13.102Z,53.20
2019-04-11T11:31:47.670Z,52.40
2019-04-11T11:34:21.275Z,53.00
2019-04-11T11:36:50.111Z,53.10
2019-04-11T11:39:31.102Z,52.50
2019-04-11T11:42:16.401Z,50.80
2019-04-11T11:44:48.804Z,50.70
2019-04-11T11:47:38.039Z,50.10
2019-04-11T11:50:06.584Z,50.70
2019-04-11T11:52:53.222Z,51.30
2019-04-11T11:55:21.994Z,50.50
2019-04-11T11:57:53.027Z,50.80
2019-04-11T12:00:21.233Z,50.30
2019-04-11T12:02:52.025Z,50.50
2019-04-11T12:05:27.064Z,50.00
2019-04-11T12:08:09.629Z,49.90
2019-04-11T12:10:35.506Z,50.00
2019-04-11T12:13:22.295Z,50.40
2019-04-11T12:15:54.876Z,50.20
2019-04-11T12:18:27.041Z,51.00
2019-04-11T12:20:57.503Z,50.80
2019-04-11T12:23:29.440Z,49.90
2019-04-11T12:25:57.649Z,49.10
2019-04-11T12:28:33.163Z,48.80
2019-04-11T12:31:05.520Z,50.00
2019-04-11T12:33:52.046Z,49.40
2019-04-11T12:36:21.044Z,49.30
2019-04-11T12:39:06.306Z,48.50
2019-04-11T12:41:37.839Z,48.60
2019-04-11T12:44:16.735Z,48.20
2019-04-11T12:46:54.387Z,47.80
2019-04-11T12:49:27.043Z,49.20
2019-04-11T12:52:12.206Z,47.60
2019-04-11T12:54:50.648Z,47.80
2019-04-11T12:57:35.893Z,48.60
2019-04-11T13:00:19.158Z,46.80
2019-04-11T13:03:04.423Z,47.20
2019-04-11T13:05:35.922Z,48.00
2019-04-11T13:08:04.509Z,46.90
2019-04-11T13:10:31.705Z,48.80
2019-04-11T13:13:22.578Z,48.30
2019-04-11T13:16:11.335Z,46.80
2019-04-11T13:18:46.593Z,47.70
2019-04-11T13:21:17.711Z,47.60
2019-04-11T13:23:55.699Z,47.90
2019-04-11T13:26:27.243Z,47.60
2019-04-11T13:29:12.447Z,46.90
2019-04-11T13:31:46.824Z,47.40
2019-04-11T13:34:15.400Z,47.90
2019-04-11T13:36:46.510Z,46.80
2019-04-11T13:39:13.988Z,47.10
2019-04-11T13:41:57.628Z,45.50
2019-04-11T13:44:24.672Z,46.60
2019-04-11T13:47:10.079Z,46.70
2019-04-11T13:49:38.730Z,47.70
2019-04-11T13:52:10.084Z,48.20
2019-04-11T13:54:41.225Z,47.50
2019-04-11T13:57:28.844Z,49.10
2019-04-11T14:00:27.095Z,49.00
2019-04-11T14:03:12.539Z,47.50
2019-04-11T14:05:41.128Z,48.40
2019-04-11T14:08:10.036Z,49.70
2019-04-11T14:10:37.709Z,51.20
2019-04-11T14:13:06.268Z,52.00
2019-04-11T14:15:36.481Z,52.10
2019-04-11T14:18:19.832Z,52.80
2019-04-11T14:20:54.466Z,53.20
2019-04-11T14:23:23.061Z,53.40
2019-04-11T14:26:08.055Z,52.30
2019-04-11T14:28:36.610Z,52.50
2019-04-11T14:31:22.695Z,53.40
2019-04-11T14:33:51.439Z,53.50
2019-04-11T14:36:36.715Z,52.90
2019-04-11T14:39:06.104Z,53.20
2019-04-11T14:41:41.693Z,54.00
2019-04-11T14:44:09.064Z,55.10
2019-04-11T14:46:40.255Z,56.00
2019-04-11T14:49:10.168Z,55.50
2019-04-11T14:51:37.843Z,56.60
2019-04-11T14:54:18.181Z,56.80
2019-04-11T14:56:47.793Z,56.80
2019-04-11T14:59:28.464Z,57.00
2019-04-11T15:02:01.636Z,57.80
2019-04-11T15:04:33.251Z,57.70
2019-04-11T15:07:01.112Z,58.30
2019-04-11T15:09:29.826Z,59.10
2019-04-11T15:11:58.798Z,58.90
2019-04-11T15:14:39.229Z,58.40
2019-04-11T15:17:13.692Z,59.30
2019-04-11T15:19:45.420Z,59.30
2019-04-11T15:22:26.148Z,59.60
2019-04-11T15:25:00.851Z,58.60
2019-04-11T15:27:46.022Z,58.60
2019-04-11T15:30:30.046Z,58.10
2019-04-11T15:33:15.171Z,58.10
2019-04-11T15:35:43.787Z,59.20
2019-04-11T15:38:29.087Z,59.40
2019-04-11T15:40:57.493Z,59.50
2019-04-11T15:43:43.572Z,59.50
2019-04-11T15:46:12.291Z,59.70
2019-04-11T15:48:40.835Z,60.00
2019-04-11T15:51:15.433Z,59.30
2019-04-11T15:53:43.991Z,58.30
2019-04-11T15:56:29.371Z,59.00
2019-04-11T15:59:12.941Z,59.70
2019-04-11T16:01:49.335Z,59.40
2019-04-11T16:04:22.308Z,58.50
2019-04-11T16:07:08.064Z,58.70
2019-04-11T16:09:35.548Z,58.90
2019-04-11T16:12:10.253Z,58.50
2019-04-11T16:14:36.923Z,58.60
2019-04-11T16:17:13.725Z,59.00
2019-04-11T16:19:41.489Z,60.80
2019-04-11T16:22:28.388Z,61.60
2019-04-11T16:24:58.336Z,60.10
2019-04-11T16:27:36.610Z,58.80
2019-04-11T16:30:11.134Z,60.00
2019-04-11T16:32:39.778Z,61.50
2019-04-11T16:35:08.520Z,62.50
2019-04-11T16:37:35.268Z,63.00
2019-04-11T16:40:23.140Z,62.60
2019-04-11T16:42:53.611Z,61.70
2019-04-11T16:45:37.766Z,60.60
2019-04-11T16:48:04.492Z,60.50
2019-04-11T16:50:31.291Z,59.50
2019-04-11T16:52:58.376Z,59.80
2019-04-11T16:55:25.352Z,59.50
2019-04-11T16:57:52.060Z,60.10
2019-04-11T17:00:20.583Z,61.20
2019-04-11T17:02:47.503Z,61.30
2019-04-11T17:05:14.744Z,61.30
2019-04-11T17:07:49.377Z,62.20
2019-04-11T17:10:17.928Z,61.50
2019-04-11T17:12:44.635Z,62.20
2019-04-11T17:15:11.523Z,61.40
2019-04-11T17:17:38.262Z,62.50
2019-04-11T17:20:06.460Z,61.30
2019-04-11T17:22:33.428Z,62.20
2019-04-11T17:25:00.092Z,62.80
2019-04-11T17:27:27.183Z,63.40
2019-04-11T17:29:55.393Z,63.80
2019-04-11T17:32:23.598Z,64.00
2019-04-11T17:34:51.739Z,63.20
2019-04-11T17:37:19.316Z,63.20
2019-04-11T17:39:46.085Z,62.40
2019-04-11T17:42:13.343Z,64.60
2019-04-11T17:44:41.922Z,63.40
2019-04-11T17:47:08.600Z,63.30
2019-04-11T17:49:35.267Z,63.00
2019-04-11T17:52:04.907Z,61.90
2019-04-11T17:54:30.645Z,62.40
2019-04-11T17:56:59.031Z,62.10
2019-04-11T17:59:28.074Z,61.20
2019-04-11T18:01:54.331Z,61.10
2019-04-11T18:04:21.090Z,61.30
2019-04-11T18:06:47.866Z,60.60
2019-04-11T18:09:14.565Z,60.10
2019-04-11T18:11:41.411Z,61.50
2019-04-11T18:14:08.104Z,60.50
2019-04-11T18:16:34.780Z,60.10
2019-04-11T18:19:05.696Z,60.70
2019-04-11T18:21:30.290Z,61.20
2019-04-11T18:23:56.944Z,61.00
2019-04-11T18:26:23.656Z,61.50
2019-04-11T18:28:51.966Z,60.90
2019-04-11T18:31:19.135Z,60.40
2019-04-11T18:33:45.915Z,62.10
2019-04-11T18:36:12.684Z,62.50
2019-04-11T18:38:39.521Z,63.30
2019-04-11T18:41:06.171Z,63.00
2019-04-11T18:43:32.851Z,63.50
2019-04-11T18:45:59.515Z,62.90
2019-04-11T18:48:26.440Z,62.50
2019-04-11T18:50:53.771Z,62.40
2019-04-11T18:53:20.581Z,62.30
2019-04-11T18:55:47.261Z,62.50
2019-04-11T18:58:13.953Z,62.40
2019-04-11T19:00:40.764Z,68.80
2019-04-11T19:03:08.000Z,63.80
2019-04-11T19:05:36.601Z,63.50
2019-04-11T19:08:03.338Z,63.60
2019-04-11T19:10:30.120Z,63.10
2019-04-11T19:12:58.664Z,63.50
2019-04-11T19:15:25.940Z,63.40
2019-04-11T19:18:05.789Z,63.40
2019-04-11T19:20:21.840Z,63.50
2019-04-11T19:22:48.924Z,63.40
2019-04-11T19:25:16.047Z,62.40
2019-04-11T19:27:43.835Z,63.70
2019-04-11T19:30:11.370Z,63.50
2019-04-11T19:32:38.108Z,63.20
2019-04-11T19:35:05.056Z,62.20
2019-04-11T19:37:32.100Z,63.10
2019-04-11T19:39:58.964Z,62.50
2019-04-11T19:42:25.668Z,62.70
2019-04-11T19:44:52.350Z,62.20
2019-04-11T19:47:21.429Z,62.50
2019-04-11T19:49:47.513Z,61.50
2019-04-11T19:52:14.163Z,61.40
2019-04-11T19:54:40.959Z,62.20
2019-04-11T19:57:07.584Z,62.50
2019-04-11T19:59:34.261Z,62.90
2019-04-11T20:02:01.227Z,62.60
2019-04-11T20:04:29.602Z,62.90
2019-04-11T20:06:56.262Z,63.80
2019-04-11T20:09:22.956Z,63.50
2019-04-11T20:11:49.734Z,63.90
2019-04-11T20:14:16.406Z,63.80
2019-04-11T20:16:48.142Z,64.50
2019-04-11T20:19:12.331Z,65.10
2019-04-11T20:21:39.060Z,65.10
2019-04-11T20:24:06.407Z,64.70
2019-04-11T20:26:32.996Z,65.80
2019-04-11T20:28:59.636Z,65.40
2019-04-11T20:31:26.320Z,64.70
2019-04-11T20:33:53.159Z,65.20
2019-04-11T20:36:19.857Z,65.60
2019-04-11T20:38:46.585Z,66.50
2019-04-11T20:41:13.347Z,66.30
2019-04-11T20:43:42.983Z,65.70
2019-04-11T20:46:08.798Z,65.30
2019-04-11T20:48:35.427Z,65.40
2019-04-11T20:51:04.047Z,66.40
2019-04-11T20:53:30.673Z,65.00
2019-04-11T20:55:57.513Z,66.00
2019-04-11T20:58:27.546Z,66.30
2019-04-11T21:00:55.717Z,66.00
2019-04-11T21:03:21.306Z,65.90
2019-04-11T21:05:48.661Z,65.70
2019-04-11T21:08:15.233Z,65.60
2019-04-11T21:10:41.934Z,65.40
2019-04-11T21:13:08.599Z,65.50
2019-04-11T21:15:35.407Z,66.00
2019-04-11T21:18:02.089Z,67.20
2019-04-11T21:20:28.872Z,67.40
2019-04-11T21:22:55.522Z,66.60
2019-04-11T21:25:22.211Z,66.20
2019-04-11T21:27:48.852Z,66.10
2019-04-11T21:30:15.548Z,66.20
2019-04-11T21:32:42.281Z,66.30
2019-04-11T21:35:08.968Z,67.30
2019-04-11T21:37:36.781Z,66.10
2019-04-11T21:40:05.508Z,65.20
2019-04-11T21:42:35.893Z,65.20
2019-04-11T21:45:20.502Z,65.20
2019-04-11T21:47:47.276Z,66.00
2019-04-11T21:50:14.452Z,65.00
2019-04-11T21:52:43.276Z,65.20
2019-04-11T21:55:09.615Z,64.10
2019-04-11T21:57:36.357Z,63.50
2019-04-11T22:00:12.940Z,64.70
2019-04-11T22:02:39.636Z,65.30
2019-04-11T22:05:06.348Z,64.30
2019-04-11T22:07:33.099Z,64.40
2019-04-11T22:09:59.776Z,64.00
2019-04-11T22:12:26.404Z,63.00
2019-04-11T22:14:53.076Z,63.40
2019-04-11T22:17:19.714Z,63.80
2019-04-11T22:19:46.558Z,63.80
2019-04-11T22:22:13.245Z,63.60
2019-04-11T22:24:40.032Z,64.70
2019-04-11T22:27:06.664Z,64.10
2019-04-11T22:29:33.367Z,64.30
2019-04-11T22:32:00.048Z,64.20
2019-04-11T22:34:31.641Z,63.20
2019-04-11T22:36:59.996Z,63.30
2019-04-11T22:39:28.991Z,64.20
2019-04-11T22:41:55.864Z,63.50
2019-04-11T22:44:22.523Z,63.90
2019-04-11T22:46:49.305Z,64.20
2019-04-11T22:49:16.020Z,64.70
2019-04-11T22:51:43.574Z,64.40
2019-04-11T22:54:12.998Z,63.70
2019-04-11T22:56:41.570Z,65.60
2019-04-11T22:59:07.648Z,65.00
2019-04-11T23:01:34.484Z,65.30
2019-04-11T23:04:01.838Z,65.00
2019-04-11T23:06:28.512Z,65.10
2019-04-11T23:08:55.155Z,64.40
2019-04-11T23:11:21.955Z,64.20
2019-04-11T23:13:48.568Z,63.20
2019-04-11T23:16:15.235Z,64.00
2019-04-11T23:18:43.952Z,65.30
2019-04-11T23:21:11.838Z,64.50
2019-04-11T23:23:39.240Z,64.20
2019-04-11T23:26:06.006Z,63.90
2019-04-11T23:28:32.736Z,63.00
2019-04-11T23:30:59.544Z,64.60
2019-04-11T23:33:26.191Z,64.70
2019-04-11T23:35:52.867Z,64.00
2019-04-11T23:38:23.608Z,64.50
2019-04-11T23:40:48.869Z,63.90
2019-04-11T23:43:19.861Z,63.60
2019-04-11T23:45:45.262Z,63.30
2019-04-11T23:48:12.269Z,64.30
2019-04-11T23:50:38.944Z,63.50
2019-04-11T23:53:05.640Z,63.50
2019-04-11T23:55:32.408Z,63.70
2019-04-11T23:58:01.253Z,63.30
